createdAt,value
2017-08-22T00:00:39.605Z,93.80
2017-08-22T00:03:08.002Z,93.70
2017-08-22T00:05:35.566Z,93.90
2017-08-22T00:08:03.087Z,93.80
2017-08-22T00:10:30.615Z,94.00
2017-08-22T00:12:58.140Z,94.00
2017-08-22T00:15:29.407Z,94.00
2017-08-22T00:17:57.197Z,94.00
2017-08-22T00:20:24.708Z,94.00
2017-08-22T00:22:52.238Z,94.10
2017-08-22T00:25:19.768Z,94.00
2017-08-22T00:27:47.361Z,94.00
2017-08-22T00:30:14.916Z,94.50
2017-08-22T00:32:42.489Z,94.70
2017-08-22T00:35:10.966Z,94.40
2017-08-22T00:37:38.593Z,94.30
2017-08-22T00:40:06.151Z,94.20
2017-08-22T00:42:34.339Z,94.30
2017-08-22T00:45:01.916Z,94.50
2017-08-22T00:47:33.440Z,94.10
2017-08-22T00:50:00.951Z,93.90
2017-08-22T00:52:28.496Z,93.80
2017-08-22T00:54:56.032Z,93.60
2017-08-22T00:57:23.629Z,93.70
2017-08-22T00:59:51.234Z,93.80
2017-08-22T01:02:22.678Z,94.20
2017-08-22T01:04:50.286Z,94.10
2017-08-22T01:07:17.804Z,94.10
2017-08-22T01:09:45.315Z,94.20
2017-08-22T01:12:12.822Z,94.40
2017-08-22T01:14:40.336Z,94.40
2017-08-22T01:17:13.371Z,94.20
2017-08-22T01:19:40.893Z,94.30
2017-08-22T01:22:10.411Z,94.40
2017-08-22T01:24:37.928Z,94.40
2017-08-22T01:27:05.460Z,94.60
2017-08-22T01:29:32.995Z,94.70
2017-08-22T01:32:04.324Z,94.80
2017-08-22T01:34:31.838Z,94.70
2017-08-22T01:36:59.359Z,94.70
2017-08-22T01:39:26.887Z,94.50
2017-08-22T01:41:54.420Z,94.50
2017-08-22T01:44:22.001Z,94.30
2017-08-22T01:47:00.110Z,93.80
2017-08-22T01:49:28.468Z,94.00
2017-08-22T01:51:56.032Z,94.00
2017-08-22T01:54:24.262Z,94.30
2017-08-22T01:56:51.777Z,94.10
2017-08-22T01:59:19.367Z,94.10
2017-08-22T02:01:46.919Z,94.20
2017-08-22T02:04:14.432Z,94.10
2017-08-22T02:06:41.968Z,94.00
2017-08-22T02:09:09.526Z,94.10
2017-08-22T02:11:39.459Z,94.40
2017-08-22T02:14:07.067Z,94.10
2017-08-22T02:16:35.392Z,93.90
2017-08-22T02:19:02.928Z,94.00
2017-08-22T02:21:34.084Z,94.00
2017-08-22T02:24:01.606Z,94.30
2017-08-22T02:26:29.179Z,94.10
2017-08-22T02:28:58.395Z,94.20
2017-08-22T02:31:25.949Z,94.20
2017-08-22T02:33:57.138Z,94.20
2017-08-22T02:36:24.770Z,94.00
2017-08-22T02:38:52.512Z,93.90
2017-08-22T02:41:20.034Z,93.90
2017-08-22T02:43:47.696Z,94.00
2017-08-22T02:46:15.208Z,94.30
2017-08-22T02:48:42.759Z,94.40
2017-08-22T02:51:10.317Z,94.60
2017-08-22T02:53:37.840Z,94.70
2017-08-22T02:56:08.729Z,94.60
2017-08-22T02:58:36.276Z,94.60
2017-08-22T03:01:03.813Z,94.70
2017-08-22T03:03:34.011Z,94.80
2017-08-22T03:06:01.593Z,94.70
2017-08-22T03:08:29.145Z,94.80
2017-08-22T03:10:56.719Z,94.70
2017-08-22T03:13:25.042Z,94.60
2017-08-22T03:15:52.567Z,94.50
2017-08-22T03:18:20.105Z,94.60
2017-08-22T03:20:48.196Z,94.60
2017-08-22T03:23:15.741Z,94.60
2017-08-22T03:25:43.329Z,94.50
2017-08-22T03:28:11.020Z,94.40
2017-08-22T03:30:39.361Z,94.50
2017-08-22T03:33:07.777Z,94.30
2017-08-22T03:35:35.295Z,94.70
2017-08-22T03:38:02.850Z,94.70
2017-08-22T03:40:30.387Z,94.80
2017-08-22T03:42:58.317Z,94.80
2017-08-22T03:45:25.838Z,94.80
2017-08-22T03:47:53.402Z,94.90
2017-08-22T03:50:25.154Z,94.90
2017-08-22T03:52:53.241Z,94.90
2017-08-22T03:55:20.796Z,94.70
2017-08-22T03:57:48.347Z,94.60
2017-08-22T04:00:15.884Z,94.60
2017-08-22T04:02:43.756Z,94.70
2017-08-22T04:05:11.328Z,94.80
2017-08-22T04:07:38.876Z,94.80
2017-08-22T04:10:07.168Z,94.50
2017-08-22T04:12:34.843Z,94.40
2017-08-22T04:15:02.405Z,94.40
2017-08-22T04:17:29.913Z,94.10
2017-08-22T04:20:02.154Z,94.20
2017-08-22T04:22:30.127Z,94.30
2017-08-22T04:24:57.643Z,94.50
2017-08-22T04:27:26.010Z,94.50
2017-08-22T04:29:53.540Z,94.50
2017-08-22T04:32:21.065Z,94.50
2017-08-22T04:34:55.664Z,94.30
2017-08-22T04:37:23.195Z,94.10
2017-08-22T04:39:51.331Z,94.10
2017-08-22T04:42:18.880Z,94.10
2017-08-22T04:44:46.778Z,94.00
2017-08-22T04:47:14.296Z,94.10
2017-08-22T04:49:41.803Z,94.10
2017-08-22T04:52:10.423Z,94.00
2017-08-22T04:54:38.018Z,94.10
2017-08-22T04:57:05.628Z,93.90
2017-08-22T04:59:33.156Z,93.70
2017-08-22T05:02:00.855Z,93.60
2017-08-22T05:04:29.418Z,93.60
2017-08-22T05:07:01.673Z,93.60
2017-08-22T05:09:30.326Z,93.50
2017-08-22T05:11:58.302Z,93.60
2017-08-22T05:14:26.001Z,93.70
2017-08-22T05:16:55.132Z,94.10
2017-08-22T05:19:22.716Z,94.00
2017-08-22T05:21:53.068Z,94.00
2017-08-22T05:24:20.604Z,94.00
2017-08-22T05:26:49.236Z,93.90
2017-08-22T05:29:16.755Z,93.80
2017-08-22T05:31:44.930Z,93.80
2017-08-22T05:34:12.521Z,93.50
2017-08-22T05:36:43.795Z,93.60
2017-08-22T05:39:14.559Z,93.20
2017-08-22T05:41:42.064Z,93.30
2017-08-22T05:44:09.603Z,93.20
2017-08-22T05:46:37.170Z,92.90
2017-08-22T05:49:04.769Z,92.30
2017-08-22T05:51:32.670Z,92.10
2017-08-22T05:54:00.253Z,91.90
2017-08-22T05:56:27.792Z,91.90
2017-08-22T05:58:55.574Z,91.30
2017-08-22T06:01:24.758Z,91.10
2017-08-22T06:03:52.329Z,91.40
2017-08-22T06:06:19.851Z,91.00
2017-08-22T06:08:47.900Z,91.60
2017-08-22T06:11:15.478Z,92.70
2017-08-22T06:13:42.998Z,91.20
2017-08-22T06:16:10.503Z,91.20
2017-08-22T06:18:38.048Z,91.00
2017-08-22T06:21:05.572Z,90.50
2017-08-22T06:23:36.509Z,91.00
2017-08-22T06:26:04.511Z,90.60
2017-08-22T06:28:32.054Z,90.10
2017-08-22T06:30:59.562Z,90.30
2017-08-22T06:33:27.076Z,90.00
2017-08-22T06:35:54.671Z,89.20
2017-08-22T06:38:25.539Z,89.50
2017-08-22T06:40:53.275Z,89.40
2017-08-22T06:43:21.320Z,87.80
2017-08-22T06:45:48.844Z,88.50
2017-08-22T06:48:16.356Z,86.90
2017-08-22T06:50:43.895Z,86.70
2017-08-22T06:53:14.188Z,87.00
2017-08-22T06:55:41.713Z,85.90
2017-08-22T06:58:09.239Z,86.00
2017-08-22T07:00:36.943Z,84.10
2017-08-22T07:03:06.140Z,84.80
2017-08-22T07:05:33.689Z,84.80
2017-08-22T07:08:01.202Z,83.90
2017-08-22T07:10:28.767Z,81.80
2017-08-22T07:12:56.280Z,81.40
2017-08-22T07:15:24.833Z,80.40
2017-08-22T07:17:52.392Z,79.30
2017-08-22T07:20:19.911Z,81.30
2017-08-22T07:22:50.858Z,79.50
2017-08-22T07:25:18.913Z,80.20
2017-08-22T07:27:46.438Z,79.20
2017-08-22T07:30:14.154Z,78.00
2017-08-22T07:32:42.204Z,75.60
2017-08-22T07:35:09.721Z,74.80
2017-08-22T07:37:40.520Z,70.80
2017-08-22T07:40:08.834Z,69.40
2017-08-22T07:42:36.347Z,66.90
2017-08-22T07:45:03.870Z,61.90
2017-08-22T07:47:32.433Z,60.00
2017-08-22T07:49:59.955Z,58.80
2017-08-22T07:52:27.937Z,55.10
2017-08-22T07:54:57.307Z,49.80
2017-08-22T07:57:26.729Z,46.50
2017-08-22T07:59:54.256Z,47.20
2017-08-22T08:02:21.831Z,47.60
2017-08-22T08:04:49.348Z,44.50
2017-08-22T08:07:17.636Z,44.40
2017-08-22T08:09:45.186Z,41.20
2017-08-22T08:12:12.701Z,39.00
2017-08-22T08:14:40.276Z,39.10
2017-08-22T08:17:07.829Z,36.80
2017-08-22T08:19:35.334Z,38.50
2017-08-22T08:22:03.378Z,40.70
2017-08-22T08:24:31.932Z,39.30
2017-08-22T08:26:59.757Z,39.30
2017-08-22T08:29:27.266Z,37.20
2017-08-22T08:31:54.770Z,38.40
2017-08-22T08:34:22.347Z,34.10
2017-08-22T08:36:50.343Z,33.50
2017-08-22T08:39:17.875Z,33.90
2017-08-22T08:41:45.387Z,32.10
2017-08-22T08:44:12.904Z,31.40
2017-08-22T08:46:40.471Z,30.70
2017-08-22T08:49:07.976Z,33.00
2017-08-22T08:51:35.483Z,33.70
2017-08-22T08:54:03.808Z,34.00
2017-08-22T08:56:31.385Z,31.50
2017-08-22T08:58:58.912Z,33.20
2017-08-22T09:01:26.415Z,35.10
2017-08-22T09:03:53.962Z,33.00
2017-08-22T09:06:21.503Z,31.70
2017-08-22T09:08:49.086Z,31.00
2017-08-22T09:11:17.268Z,32.10
2017-08-22T09:13:44.791Z,29.60
2017-08-22T09:16:12.296Z,29.90
2017-08-22T09:18:39.816Z,29.70
2017-08-22T09:21:07.360Z,31.70
2017-08-22T09:23:34.929Z,32.30
2017-08-22T09:26:02.432Z,34.40
2017-08-22T09:28:30.911Z,33.90
2017-08-22T09:30:58.427Z,32.90
2017-08-22T09:33:25.942Z,32.50
2017-08-22T09:35:53.484Z,33.40
2017-08-22T09:38:21.028Z,36.90
2017-08-22T09:40:48.579Z,36.10
2017-08-22T09:43:16.106Z,35.60
2017-08-22T09:45:43.629Z,35.80
2017-08-22T09:48:11.195Z,36.50
2017-08-22T09:50:39.353Z,36.10
2017-08-22T09:53:07.052Z,34.60
2017-08-22T09:55:34.556Z,32.10
2017-08-22T09:58:02.077Z,31.80
2017-08-22T10:00:29.616Z,32.50
2017-08-22T10:02:57.139Z,30.80
2017-08-22T10:05:24.708Z,30.00
2017-08-22T10:07:52.738Z,29.50
2017-08-22T10:10:23.189Z,30.20
2017-08-22T10:12:50.750Z,30.00
2017-08-22T10:15:18.319Z,31.80
2017-08-22T10:17:45.866Z,30.30
2017-08-22T10:20:13.426Z,30.10
2017-08-22T10:22:41.376Z,28.10
2017-08-22T10:25:08.904Z,27.60
2017-08-22T10:27:40.832Z,27.90
2017-08-22T10:30:08.353Z,29.50
2017-08-22T10:32:35.877Z,31.90
2017-08-22T10:35:03.423Z,33.10
2017-08-22T10:37:32.392Z,35.20
2017-08-22T10:39:59.918Z,35.10
2017-08-22T10:42:27.502Z,36.10
2017-08-22T10:44:55.939Z,38.60
2017-08-22T10:47:23.464Z,37.10
2017-08-22T10:49:51.677Z,34.80
2017-08-22T10:52:19.171Z,32.50
2017-08-22T10:54:46.726Z,31.80
2017-08-22T10:57:17.487Z,30.10
2017-08-22T10:59:45.609Z,29.90
2017-08-22T11:02:13.204Z,27.40
2017-08-22T11:04:40.717Z,26.90
2017-08-22T11:07:09.059Z,26.70
2017-08-22T11:09:36.596Z,28.20
2017-08-22T11:12:04.807Z,29.30
2017-08-22T11:14:32.352Z,29.70
2017-08-22T11:16:59.864Z,29.50
2017-08-22T11:19:27.387Z,29.60
2017-08-22T11:21:55.425Z,28.00
2017-08-22T11:24:23.677Z,27.90
2017-08-22T11:26:51.223Z,29.20
2017-08-22T11:29:22.343Z,29.80
2017-08-22T11:31:49.862Z,29.20
2017-08-22T11:34:18.325Z,27.60
2017-08-22T11:36:45.886Z,29.10
2017-08-22T11:39:14.151Z,30.00
2017-08-22T11:41:41.663Z,30.50
2017-08-22T11:44:09.179Z,31.60
2017-08-22T11:46:36.707Z,31.80
2017-08-22T11:49:04.244Z,33.50
2017-08-22T11:51:32.240Z,33.60
2017-08-22T11:53:59.804Z,34.50
2017-08-22T11:56:27.358Z,35.30
2017-08-22T11:58:54.860Z,33.80
2017-08-22T12:01:22.377Z,34.30
2017-08-22T12:03:50.016Z,34.10
2017-08-22T12:06:17.523Z,33.40
2017-08-22T12:08:45.664Z,31.50
2017-08-22T12:11:13.208Z,30.60
2017-08-22T12:13:41.528Z,30.80
2017-08-22T12:16:09.050Z,30.80
2017-08-22T12:18:36.568Z,30.30
2017-08-22T12:21:05.764Z,31.50
2017-08-22T12:23:33.280Z,31.40
2017-08-22T12:26:00.796Z,31.20
2017-08-22T12:28:28.308Z,32.80
2017-08-22T12:30:55.819Z,33.70
2017-08-22T12:33:24.068Z,33.50
2017-08-22T12:35:51.631Z,33.30
2017-08-22T12:38:19.185Z,32.70
2017-08-22T12:40:46.705Z,33.80
2017-08-22T12:43:14.209Z,33.20
2017-08-22T12:45:41.721Z,33.30
2017-08-22T12:48:09.282Z,34.00
2017-08-22T12:50:37.397Z,34.20
2017-08-22T12:53:05.439Z,34.00
2017-08-22T12:55:32.999Z,34.30
2017-08-22T12:58:04.133Z,34.90
2017-08-22T13:00:32.272Z,35.20
2017-08-22T13:02:59.785Z,36.00
2017-08-22T13:05:27.318Z,37.10
2017-08-22T13:07:54.864Z,37.40
2017-08-22T13:10:22.388Z,37.70
2017-08-22T13:12:49.943Z,38.50
2017-08-22T13:15:17.571Z,36.20
2017-08-22T13:17:45.111Z,36.10
2017-08-22T13:20:12.620Z,39.10
2017-08-22T13:22:40.578Z,38.60
2017-08-22T13:25:08.128Z,39.80
2017-08-22T13:27:35.631Z,38.10
2017-08-22T13:30:03.160Z,38.50
2017-08-22T13:32:30.699Z,38.10
2017-08-22T13:34:58.253Z,37.70
2017-08-22T13:37:25.809Z,38.30
2017-08-22T13:39:54.009Z,37.70
2017-08-22T13:42:57.071Z,37.30
2017-08-22T13:45:24.629Z,37.20
2017-08-22T13:47:52.143Z,37.60
2017-08-22T13:50:19.650Z,37.20
2017-08-22T13:52:47.172Z,38.10
2017-08-22T13:55:14.755Z,37.20
2017-08-22T13:57:42.269Z,38.40
2017-08-22T14:00:13.590Z,40.00
2017-08-22T14:02:41.320Z,40.80
2017-08-22T14:05:08.824Z,41.10
2017-08-22T14:07:36.340Z,41.00
2017-08-22T14:10:03.880Z,40.70
2017-08-22T14:12:31.391Z,40.00
2017-08-22T14:15:01.758Z,39.00
2017-08-22T14:17:29.276Z,38.70
2017-08-22T14:19:57.713Z,40.10
2017-08-22T14:22:25.335Z,40.30
2017-08-22T14:24:52.836Z,41.70
2017-08-22T14:27:20.379Z,41.10
2017-08-22T14:29:54.899Z,40.20
2017-08-22T14:32:23.412Z,41.00
2017-08-22T14:34:50.913Z,42.00
2017-08-22T14:37:18.852Z,43.50
2017-08-22T14:39:46.397Z,42.30
2017-08-22T14:42:13.908Z,42.00
2017-08-22T14:44:41.983Z,41.40
2017-08-22T14:47:09.984Z,42.80
2017-08-22T14:49:37.537Z,42.90
2017-08-22T14:52:05.221Z,43.20
2017-08-22T14:54:32.764Z,42.80
2017-08-22T14:57:00.296Z,41.90
2017-08-22T14:59:27.822Z,41.60
2017-08-22T15:01:55.859Z,43.30
2017-08-22T15:04:23.384Z,44.20
2017-08-22T15:06:50.915Z,45.30
2017-08-22T15:09:18.439Z,44.50
2017-08-22T15:11:45.943Z,45.10
2017-08-22T15:14:13.517Z,45.30
2017-08-22T15:16:41.035Z,44.90
2017-08-22T15:19:09.120Z,44.00
2017-08-22T15:21:36.667Z,44.60
2017-08-22T15:24:04.231Z,45.80
2017-08-22T15:26:31.784Z,45.20
2017-08-22T15:28:59.292Z,44.50
2017-08-22T15:31:27.833Z,45.50
2017-08-22T15:33:55.387Z,44.60
2017-08-22T15:36:22.909Z,43.30
2017-08-22T15:38:50.456Z,44.40
2017-08-22T15:41:17.957Z,43.60
2017-08-22T15:43:46.239Z,44.30
2017-08-22T15:46:13.796Z,44.20
2017-08-22T15:48:41.871Z,44.30
2017-08-22T15:51:09.380Z,44.50
2017-08-22T15:53:36.919Z,45.30
2017-08-22T15:56:04.424Z,44.60
2017-08-22T15:58:31.992Z,44.80
2017-08-22T16:00:59.496Z,45.20
2017-08-22T16:03:27.429Z,45.50
2017-08-22T16:05:55.311Z,46.30
2017-08-22T16:08:22.839Z,45.70
2017-08-22T16:10:50.380Z,46.30
2017-08-22T16:13:17.879Z,45.10
2017-08-22T16:15:45.432Z,45.40
2017-08-22T16:18:13.031Z,45.90
2017-08-22T16:20:40.562Z,47.00
2017-08-22T16:23:08.150Z,46.80
2017-08-22T16:25:35.651Z,47.70
2017-08-22T16:28:03.711Z,47.80
2017-08-22T16:30:31.247Z,48.50
2017-08-22T16:32:58.757Z,49.30
2017-08-22T16:35:26.313Z,48.30
2017-08-22T16:37:53.829Z,48.40
2017-08-22T16:40:23.021Z,48.20
2017-08-22T16:42:50.598Z,48.20
2017-08-22T16:45:18.127Z,48.80
2017-08-22T16:47:45.633Z,49.10
2017-08-22T16:50:20.447Z,48.10
2017-08-22T16:52:48.003Z,48.20
2017-08-22T16:55:15.525Z,47.90
2017-08-22T16:57:43.134Z,49.10
2017-08-22T17:00:10.722Z,49.50
2017-08-22T17:02:45.919Z,49.40
2017-08-22T17:05:14.253Z,51.30
2017-08-22T17:07:41.998Z,51.30
2017-08-22T17:10:09.552Z,50.40
2017-08-22T17:12:38.612Z,50.90
2017-08-22T17:15:06.208Z,50.80
2017-08-22T17:17:33.745Z,50.40
2017-08-22T17:20:02.187Z,51.30
2017-08-22T17:22:29.744Z,52.30
2017-08-22T17:24:57.325Z,53.00
2017-08-22T17:27:24.874Z,52.80
2017-08-22T17:29:52.388Z,52.40
2017-08-22T17:34:53.828Z,53.60
2017-08-22T17:37:23.115Z,49.30
2017-08-22T17:39:50.674Z,49.30
2017-08-22T17:42:18.235Z,53.40
2017-08-22T17:44:46.629Z,54.90
2017-08-22T17:47:14.156Z,57.10
2017-08-22T17:49:44.953Z,57.80
2017-08-22T17:52:12.465Z,58.90
2017-08-22T17:54:40.019Z,58.80
2017-08-22T17:57:07.533Z,60.60
2017-08-22T17:59:35.956Z,62.20
2017-08-22T18:02:03.510Z,63.10
2017-08-22T18:04:31.018Z,64.10
2017-08-22T18:06:58.559Z,65.40
2017-08-22T18:09:26.160Z,65.00
2017-08-22T18:11:53.679Z,66.60
2017-08-22T18:14:21.980Z,68.60
2017-08-22T18:16:49.812Z,68.50
2017-08-22T18:19:17.439Z,69.30
2017-08-22T18:21:45.024Z,70.10
2017-08-22T18:24:12.668Z,70.00
2017-08-22T18:26:40.232Z,71.40
2017-08-22T18:29:07.747Z,71.90
2017-08-22T18:31:35.713Z,72.80
2017-08-22T18:34:07.286Z,74.10
2017-08-22T18:36:34.818Z,74.80
2017-08-22T18:39:02.339Z,74.70
2017-08-22T18:41:30.140Z,75.30
2017-08-22T18:43:59.224Z,77.50
2017-08-22T18:46:27.668Z,77.50
2017-08-22T18:48:55.179Z,77.70
2017-08-22T18:51:23.533Z,78.10
2017-08-22T18:53:51.046Z,78.20
2017-08-22T18:56:18.566Z,78.60
2017-08-22T18:58:46.398Z,78.20
2017-08-22T19:01:14.408Z,77.70
2017-08-22T19:03:43.325Z,79.80
2017-08-22T19:06:10.927Z,79.80
2017-08-22T19:08:38.441Z,80.20
2017-08-22T19:11:06.782Z,80.10
2017-08-22T19:13:35.114Z,80.90
2017-08-22T19:16:02.682Z,80.80
2017-08-22T19:18:30.187Z,81.30
2017-08-22T19:20:57.687Z,81.90
2017-08-22T19:23:27.384Z,82.10
2017-08-22T19:25:54.973Z,82.40
2017-08-22T19:28:22.532Z,82.80
2017-08-22T19:30:50.720Z,82.30
2017-08-22T19:33:19.036Z,83.10
2017-08-22T19:35:46.549Z,83.10
2017-08-22T19:38:18.803Z,82.90
2017-08-22T19:40:46.325Z,82.90
2017-08-22T19:43:14.027Z,83.10
2017-08-22T19:45:41.596Z,82.80
2017-08-22T19:48:09.149Z,81.40
2017-08-22T19:50:40.436Z,82.50
2017-08-22T19:53:07.944Z,82.60
2017-08-22T19:55:36.305Z,83.60
2017-08-22T19:58:03.879Z,83.60
2017-08-22T20:00:32.771Z,84.10
2017-08-22T20:03:00.399Z,83.90
2017-08-22T20:05:31.712Z,84.40
2017-08-22T20:07:59.347Z,84.70
2017-08-22T20:10:27.619Z,84.70
2017-08-22T20:12:55.331Z,84.60
2017-08-22T20:15:22.924Z,84.40
2017-08-22T20:17:51.112Z,84.80
2017-08-22T20:20:19.342Z,85.20
2017-08-22T20:22:46.886Z,85.20
2017-08-22T20:25:14.959Z,85.30
2017-08-22T20:27:43.235Z,86.20
2017-08-22T20:30:10.743Z,86.00
2017-08-22T20:32:38.752Z,86.40
2017-08-22T20:35:06.303Z,87.20
2017-08-22T20:37:33.944Z,87.70
2017-08-22T20:40:01.477Z,88.10
2017-08-22T20:42:28.990Z,87.90
2017-08-22T20:44:56.542Z,87.40
2017-08-22T20:47:24.139Z,87.50
2017-08-22T20:49:52.217Z,87.90
2017-08-22T20:52:27.312Z,87.80
2017-08-22T20:54:54.976Z,88.40
2017-08-22T20:57:24.055Z,88.90
2017-08-22T20:59:53.304Z,89.00
2017-08-22T21:02:20.867Z,89.00
2017-08-22T21:04:48.435Z,88.80
2017-08-22T21:07:15.968Z,89.20
2017-08-22T21:09:43.998Z,89.60
2017-08-22T21:12:12.498Z,89.50
2017-08-22T21:14:40.078Z,90.10
2017-08-22T21:17:07.673Z,90.30
2017-08-22T21:19:35.211Z,90.40
2017-08-22T21:22:02.724Z,90.70
2017-08-22T21:24:31.183Z,90.80
2017-08-22T21:26:58.703Z,90.80
2017-08-22T21:29:26.312Z,91.00
2017-08-22T21:31:54.684Z,90.80
2017-08-22T21:34:22.260Z,90.90
2017-08-22T21:36:50.694Z,91.00
2017-08-22T21:39:22.652Z,91.10
2017-08-22T21:41:51.132Z,90.90
2017-08-22T21:44:19.201Z,91.00
2017-08-22T21:46:46.804Z,91.20
2017-08-22T21:49:14.314Z,91.20
2017-08-22T21:51:42.599Z,91.00
2017-08-22T21:54:10.124Z,91.00
2017-08-22T21:56:37.695Z,90.70
2017-08-22T21:59:05.199Z,90.90
2017-08-22T22:01:32.766Z,90.90
2017-08-22T22:04:00.279Z,91.20
2017-08-22T22:06:27.867Z,91.20
2017-08-22T22:08:55.380Z,91.50
2017-08-22T22:11:23.565Z,91.60
2017-08-22T22:13:51.179Z,91.60
2017-08-22T22:16:18.684Z,91.80
2017-08-22T22:18:46.227Z,91.80
2017-08-22T22:21:13.727Z,91.70
2017-08-22T22:23:41.234Z,92.00
2017-08-22T22:26:08.748Z,92.20
2017-08-22T22:28:36.276Z,92.10
2017-08-22T22:31:04.308Z,91.90
2017-08-22T22:33:31.859Z,92.20
2017-08-22T22:35:59.823Z,92.30
2017-08-22T22:38:27.401Z,92.30
2017-08-22T22:40:58.315Z,92.50
2017-08-22T22:43:27.514Z,92.90
2017-08-22T22:45:55.056Z,92.90
2017-08-22T22:48:22.572Z,93.10
2017-08-22T22:50:50.169Z,92.90
2017-08-22T22:53:17.711Z,92.60
2017-08-22T22:55:45.910Z,92.70
2017-08-22T22:58:13.476Z,92.90
2017-08-22T23:00:40.985Z,93.00
2017-08-22T23:03:08.571Z,93.30
2017-08-22T23:05:36.077Z,93.10
2017-08-22T23:08:03.596Z,92.90
2017-08-22T23:10:31.169Z,93.10
2017-08-22T23:12:59.705Z,93.10
2017-08-22T23:15:27.200Z,93.00
2017-08-22T23:17:54.752Z,93.20
2017-08-22T23:22:56.255Z,93.00
2017-08-22T23:25:24.531Z,93.10
2017-08-22T23:27:52.862Z,93.20
2017-08-22T23:30:20.416Z,93.20
2017-08-22T23:32:47.939Z,93.20
2017-08-22T23:35:15.439Z,93.10
2017-08-22T23:37:42.955Z,92.80
2017-08-22T23:40:14.945Z,92.90
2017-08-22T23:42:48.137Z,93.00
2017-08-22T23:45:15.695Z,93.20
2017-08-22T23:47:43.199Z,92.60
2017-08-22T23:50:10.709Z,92.50
2017-08-22T23:52:38.219Z,92.40
2017-08-22T23:55:09.591Z,92.30
2017-08-22T23:57:37.099Z,92.60
